sensor_id;sensor_type;location;lat;lon;timestamp;P1;durP1;ratioP1;P2;durP2;ratioP2
2452;SDS011;63678;47.994;7.854;2023-05-10T00:01:28;4.63;;;2.33;;
2452;SDS011;63678;47.994;7.854;2023-05-10T00:04:00;3.50;;;1.90;;
2452;SDS011;63678;47.994;7.854;2023-05-10T00:06:33;6.18;;;1.80;;
2452;SDS011;63678;47.994;7.854;2023-05-10T00:09:06;3.22;;;1.75;;
2452;SDS011;63678;47.994;7.854;2023-05-10T00:11:38;4.00;;;1.92;;
2452;SDS011;63678;47.994;7.854;2023-05-10T00:14:11;4.18;;;1.90;;
2452;SDS011;63678;47.994;7.854;2023-05-10T00:16:44;4.57;;;1.97;;
2452;SDS011;63678;47.994;7.854;2023-05-10T00:19:16;3.40;;;1.67;;
2452;SDS011;63678;47.994;7.854;2023-05-10T00:21:49;5.93;;;2.60;;
2452;SDS011;63678;47.994;7.854;2023-05-10T00:24:21;3.30;;;1.73;;
2452;SDS011;63678;47.994;7.854;2023-05-10T00:26:54;4.07;;;1.67;;
2452;SDS011;63678;47.994;7.854;2023-05-10T00:29:26;3.30;;;1.90;;
2452;SDS011;63678;47.994;7.854;2023-05-10T00:31:59;3.92;;;1.77;;
2452;SDS011;63678;47.994;7.854;2023-05-10T00:34:32;4.75;;;1.90;;
2452;SDS011;63678;47.994;7.854;2023-05-10T00:37:04;3.47;;;1.80;;
2452;SDS011;63678;47.994;7.854;2023-05-10T00:39:37;3.28;;;1.75;;
2452;SDS011;63678;47.994;7.854;2023-05-10T00:42:10;3.43;;;1.80;;
2452;SDS011;63678;47.994;7.854;2023-05-10T00:44:42;3.53;;;1.90;;
2452;SDS011;63678;47.994;7.854;2023-05-10T00:47:15;5.35;;;2.67;;
2452;SDS011;63678;47.994;7.854;2023-05-10T00:49:48;5.05;;;1.80;;
2452;SDS011;63678;47.994;7.854;2023-05-10T00:52:21;4.35;;;1.88;;
2452;SDS011;63678;47.994;7.854;2023-05-10T00:54:55;3.50;;;2.00;;
2452;SDS011;63678;47.994;7.854;2023-05-10T00:57:28;8.05;;;1.88;;
2452;SDS011;63678;47.994;7.854;2023-05-10T01:00:04;4.15;;;2.20;;
2452;SDS011;63678;47.994;7.854;2023-05-10T01:02:38;4.53;;;1.98;;
2452;SDS011;63678;47.994;7.854;2023-05-10T01:05:11;3.58;;;1.98;;
2452;SDS011;63678;47.994;7.854;2023-05-10T01:07:44;3.97;;;1.83;;
2452;SDS011;63678;47.994;7.854;2023-05-10T01:10:38;4.25;;;2.00;;
2452;SDS011;63678;47.994;7.854;2023-05-10T01:13:12;3.72;;;1.88;;
2452;SDS011;63678;47.994;7.854;2023-05-10T01:15:45;4.78;;;1.80;;
2452;SDS011;63678;47.994;7.854;2023-05-10T01:18:19;3.78;;;1.83;;
2452;SDS011;63678;47.994;7.854;2023-05-10T01:21:01;3.73;;;1.77;;
2452;SDS011;63678;47.994;7.854;2023-05-10T01:24:09;7.72;;;2.10;;
2452;SDS011;63678;47.994;7.854;2023-05-10T01:35:51;3.50;;;1.90;;
2452;SDS011;63678;47.994;7.854;2023-05-10T01:38:49;11.70;;;2.50;;
2452;SDS011;63678;47.994;7.854;2023-05-10T01:41:38;4.18;;;2.65;;
2452;SDS011;63678;47.994;7.854;2023-05-10T01:44:25;4.75;;;2.70;;
2452;SDS011;63678;47.994;7.854;2023-05-10T01:47:11;4.45;;;2.42;;
2452;SDS011;63678;47.994;7.854;2023-05-10T01:49:53;6.37;;;2.87;;
2452;SDS011;63678;47.994;7.854;2023-05-10T01:52:30;6.68;;;2.70;;
2452;SDS011;63678;47.994;7.854;2023-05-10T01:55:08;4.47;;;2.47;;
2452;SDS011;63678;47.994;7.854;2023-05-10T01:57:46;4.30;;;2.70;;
2452;SDS011;63678;47.994;7.854;2023-05-10T02:00:19;5.25;;;2.30;;
2452;SDS011;63678;47.994;7.854;2023-05-10T02:02:55;4.73;;;2.60;;
2452;SDS011;63678;47.994;7.854;2023-05-10T02:05:28;4.10;;;2.17;;
2452;SDS011;63678;47.994;7.854;2023-05-10T02:08:03;5.15;;;2.70;;
2452;SDS011;63678;47.994;7.854;2023-05-10T02:10:40;4.93;;;2.40;;
2452;SDS011;63678;47.994;7.854;2023-05-10T02:13:14;5.85;;;2.28;;
2452;SDS011;63678;47.994;7.854;2023-05-10T02:15:48;4.97;;;2.97;;
2452;SDS011;63678;47.994;7.854;2023-05-10T02:18:21;5.18;;;3.03;;
2452;SDS011;63678;47.994;7.854;2023-05-10T02:20:54;4.05;;;2.38;;
2452;SDS011;63678;47.994;7.854;2023-05-10T02:23:28;3.85;;;2.20;;
2452;SDS011;63678;47.994;7.854;2023-05-10T02:26:01;4.00;;;2.20;;
2452;SDS011;63678;47.994;7.854;2023-05-10T02:28:35;4.70;;;2.03;;
2452;SDS011;63678;47.994;7.854;2023-05-10T02:31:09;3.92;;;2.15;;
2452;SDS011;63678;47.994;7.854;2023-05-10T02:33:42;4.38;;;2.20;;
2452;SDS011;63678;47.994;7.854;2023-05-10T02:36:15;3.55;;;2.20;;
2452;SDS011;63678;47.994;7.854;2023-05-10T02:38:48;4.80;;;2.30;;
2452;SDS011;63678;47.994;7.854;2023-05-10T02:41:23;5.90;;;2.93;;
2452;SDS011;63678;47.994;7.854;2023-05-10T02:43:59;5.63;;;2.10;;
2452;SDS011;63678;47.994;7.854;2023-05-10T02:46:34;3.85;;;2.08;;
2452;SDS011;63678;47.994;7.854;2023-05-10T02:49:08;4.28;;;2.20;;
2452;SDS011;63678;47.994;7.854;2023-05-10T02:51:42;4.97;;;2.28;;
2452;SDS011;63678;47.994;7.854;2023-05-10T02:54:30;3.47;;;1.90;;
2452;SDS011;63678;47.994;7.854;2023-05-10T02:57:05;5.05;;;2.20;;
2452;SDS011;63678;47.994;7.854;2023-05-10T02:59:38;4.28;;;2.47;;
2452;SDS011;63678;47.994;7.854;2023-05-10T03:02:12;3.58;;;1.90;;
2452;SDS011;63678;47.994;7.854;2023-05-10T03:04:44;3.33;;;1.80;;
2452;SDS011;63678;47.994;7.854;2023-05-10T03:07:17;3.60;;;1.93;;
2452;SDS011;63678;47.994;7.854;2023-05-10T03:09:52;3.33;;;1.90;;
2452;SDS011;63678;47.994;7.854;2023-05-10T03:20:57;4.73;;;2.10;;
2452;SDS011;63678;47.994;7.854;2023-05-10T03:23:41;4.25;;;2.10;;
2452;SDS011;63678;47.994;7.854;2023-05-10T03:26:30;4.30;;;2.45;;
2452;SDS011;63678;47.994;7.854;2023-05-10T03:29:12;5.10;;;2.10;;
2452;SDS011;63678;47.994;7.854;2023-05-10T03:31:45;4.68;;;2.72;;
2452;SDS011;63678;47.994;7.854;2023-05-10T03:34:25;4.90;;;2.43;;
2452;SDS011;63678;47.994;7.854;2023-05-10T03:36:57;4.25;;;2.28;;
2452;SDS011;63678;47.994;7.854;2023-05-10T03:39:33;3.78;;;2.33;;
2452;SDS011;63678;47.994;7.854;2023-05-10T03:42:06;4.80;;;2.67;;
2452;SDS011;63678;47.994;7.854;2023-05-10T03:44:39;4.18;;;2.30;;
2452;SDS011;63678;47.994;7.854;2023-05-10T03:47:12;4.43;;;2.50;;
2452;SDS011;63678;47.994;7.854;2023-05-10T03:49:45;8.07;;;2.70;;
2452;SDS011;63678;47.994;7.854;2023-05-10T03:52:17;5.75;;;2.50;;
2452;SDS011;63678;47.994;7.854;2023-05-10T03:54:49;4.05;;;2.47;;
2452;SDS011;63678;47.994;7.854;2023-05-10T03:57:22;4.13;;;2.83;;
2452;SDS011;63678;47.994;7.854;2023-05-10T03:59:54;4.70;;;2.20;;
2452;SDS011;63678;47.994;7.854;2023-05-10T04:02:27;3.97;;;2.22;;
2452;SDS011;63678;47.994;7.854;2023-05-10T04:05:01;6.20;;;2.35;;
2452;SDS011;63678;47.994;7.854;2023-05-10T04:07:34;4.00;;;2.22;;
2452;SDS011;63678;47.994;7.854;2023-05-10T04:10:06;4.35;;;2.55;;
2452;SDS011;63678;47.994;7.854;2023-05-10T04:12:39;6.13;;;2.20;;
2452;SDS011;63678;47.994;7.854;2023-05-10T04:15:12;5.13;;;2.50;;
2452;SDS011;63678;47.994;7.854;2023-05-10T04:17:44;6.68;;;2.55;;
2452;SDS011;63678;47.994;7.854;2023-05-10T04:20:17;7.53;;;2.60;;
2452;SDS011;63678;47.994;7.854;2023-05-10T04:22:49;3.80;;;2.30;;
2452;SDS011;63678;47.994;7.854;2023-05-10T04:25:21;6.20;;;3.27;;
2452;SDS011;63678;47.994;7.854;2023-05-10T04:27:53;6.05;;;3.40;;
2452;SDS011;63678;47.994;7.854;2023-05-10T04:30:26;5.07;;;2.72;;
2452;SDS011;63678;47.994;7.854;2023-05-10T04:33:00;4.53;;;2.63;;
2452;SDS011;63678;47.994;7.854;2023-05-10T04:35:34;5.72;;;2.35;;
2452;SDS011;63678;47.994;7.854;2023-05-10T04:38:06;4.83;;;2.50;;
2452;SDS011;63678;47.994;7.854;2023-05-10T04:40:38;8.30;;;2.42;;
2452;SDS011;63678;47.994;7.854;2023-05-10T04:43:11;4.80;;;2.53;;
2452;SDS011;63678;47.994;7.854;2023-05-10T04:45:43;4.63;;;2.90;;
2452;SDS011;63678;47.994;7.854;2023-05-10T04:48:16;7.03;;;2.30;;
2452;SDS011;63678;47.994;7.854;2023-05-10T04:50:48;4.60;;;2.40;;
2452;SDS011;63678;47.994;7.854;2023-05-10T04:53:21;5.53;;;2.67;;
2452;SDS011;63678;47.994;7.854;2023-05-10T04:55:53;7.70;;;2.42;;
2452;SDS011;63678;47.994;7.854;2023-05-10T04:58:26;7.97;;;2.40;;
2452;SDS011;63678;47.994;7.854;2023-05-10T05:01:04;4.80;;;2.72;;
2452;SDS011;63678;47.994;7.854;2023-05-10T05:03:38;4.13;;;2.20;;
2452;SDS011;63678;47.994;7.854;2023-05-10T05:06:11;4.93;;;2.72;;
2452;SDS011;63678;47.994;7.854;2023-05-10T05:08:43;5.95;;;2.50;;
2452;SDS011;63678;47.994;7.854;2023-05-10T05:11:15;6.22;;;2.60;;
2452;SDS011;63678;47.994;7.854;2023-05-10T05:13:48;4.40;;;2.20;;
2452;SDS011;63678;47.994;7.854;2023-05-10T05:16:20;4.73;;;2.70;;
2452;SDS011;63678;47.994;7.854;2023-05-10T05:18:53;5.63;;;2.60;;
2452;SDS011;63678;47.994;7.854;2023-05-10T05:21:25;6.85;;;2.75;;
2452;SDS011;63678;47.994;7.854;2023-05-10T05:23:58;5.05;;;2.50;;
2452;SDS011;63678;47.994;7.854;2023-05-10T05:26:31;5.82;;;2.33;;
2452;SDS011;63678;47.994;7.854;2023-05-10T05:29:04;6.33;;;2.43;;
2452;SDS011;63678;47.994;7.854;2023-05-10T05:31:36;4.90;;;2.38;;
2452;SDS011;63678;47.994;7.854;2023-05-10T05:34:09;7.20;;;2.97;;
2452;SDS011;63678;47.994;7.854;2023-05-10T05:36:41;4.68;;;2.30;;
2452;SDS011;63678;47.994;7.854;2023-05-10T05:39:13;4.70;;;2.30;;
2452;SDS011;63678;47.994;7.854;2023-05-10T05:41:46;4.57;;;2.37;;
2452;SDS011;63678;47.994;7.854;2023-05-10T05:44:18;7.82;;;2.83;;
2452;SDS011;63678;47.994;7.854;2023-05-10T05:46:50;4.90;;;2.60;;
2452;SDS011;63678;47.994;7.854;2023-05-10T05:49:22;5.65;;;2.63;;
2452;SDS011;63678;47.994;7.854;2023-05-10T05:51:58;5.32;;;2.60;;
2452;SDS011;63678;47.994;7.854;2023-05-10T05:54:34;5.20;;;2.67;;
2452;SDS011;63678;47.994;7.854;2023-05-10T05:57:07;6.22;;;2.47;;
2452;SDS011;63678;47.994;7.854;2023-05-10T05:59:39;8.30;;;2.60;;
2452;SDS011;63678;47.994;7.854;2023-05-10T06:02:14;8.80;;;3.05;;
2452;SDS011;63678;47.994;7.854;2023-05-10T06:04:47;7.53;;;3.33;;
2452;SDS011;63678;47.994;7.854;2023-05-10T06:07:19;4.43;;;2.23;;
2452;SDS011;63678;47.994;7.854;2023-05-10T06:09:52;4.45;;;2.65;;
2452;SDS011;63678;47.994;7.854;2023-05-10T06:12:25;4.38;;;2.67;;
2452;SDS011;63678;47.994;7.854;2023-05-10T06:14:57;5.55;;;2.30;;
2452;SDS011;63678;47.994;7.854;2023-05-10T06:17:29;4.05;;;2.20;;
2452;SDS011;63678;47.994;7.854;2023-05-10T06:20:02;3.73;;;2.23;;
2452;SDS011;63678;47.994;7.854;2023-05-10T06:22:34;5.18;;;2.70;;
2452;SDS011;63678;47.994;7.854;2023-05-10T06:25:07;5.53;;;2.90;;
2452;SDS011;63678;47.994;7.854;2023-05-10T06:27:40;5.28;;;2.60;;
2452;SDS011;63678;47.994;7.854;2023-05-10T06:30:12;5.80;;;3.00;;
2452;SDS011;63678;47.994;7.854;2023-05-10T06:32:46;5.13;;;2.60;;
2452;SDS011;63678;47.994;7.854;2023-05-10T06:35:21;11.93;;;3.40;;
2452;SDS011;63678;47.994;7.854;2023-05-10T06:37:53;8.02;;;2.75;;
2452;SDS011;63678;47.994;7.854;2023-05-10T06:40:26;7.22;;;2.60;;
2452;SDS011;63678;47.994;7.854;2023-05-10T06:42:58;5.72;;;2.72;;
2452;SDS011;63678;47.994;7.854;2023-05-10T06:45:31;6.33;;;3.03;;
2452;SDS011;63678;47.994;7.854;2023-05-10T06:48:03;6.88;;;3.00;;
2452;SDS011;63678;47.994;7.854;2023-05-10T06:50:36;5.43;;;2.92;;
2452;SDS011;63678;47.994;7.854;2023-05-10T06:53:08;5.60;;;2.55;;
2452;SDS011;63678;47.994;7.854;2023-05-10T06:55:41;5.22;;;2.35;;
2452;SDS011;63678;47.994;7.854;2023-05-10T06:58:13;5.43;;;2.40;;
2452;SDS011;63678;47.994;7.854;2023-05-10T07:00:45;5.43;;;2.60;;
2452;SDS011;63678;47.994;7.854;2023-05-10T07:03:18;6.95;;;2.95;;
2452;SDS011;63678;47.994;7.854;2023-05-10T07:05:51;5.75;;;2.65;;
2452;SDS011;63678;47.994;7.854;2023-05-10T07:08:23;7.05;;;2.72;;
2452;SDS011;63678;47.994;7.854;2023-05-10T07:11:02;7.33;;;3.07;;
2452;SDS011;63678;47.994;7.854;2023-05-10T07:13:36;6.22;;;2.97;;
2452;SDS011;63678;47.994;7.854;2023-05-10T07:16:10;11.80;;;4.20;;
2452;SDS011;63678;47.994;7.854;2023-05-10T07:18:43;9.20;;;2.97;;
2452;SDS011;63678;47.994;7.854;2023-05-10T07:21:15;7.00;;;3.03;;
2452;SDS011;63678;47.994;7.854;2023-05-10T07:23:47;8.57;;;3.13;;
2452;SDS011;63678;47.994;7.854;2023-05-10T07:26:20;7.25;;;3.10;;
2452;SDS011;63678;47.994;7.854;2023-05-10T07:28:52;5.68;;;2.50;;
2452;SDS011;63678;47.994;7.854;2023-05-10T07:31:24;8.07;;;2.50;;
2452;SDS011;63678;47.994;7.854;2023-05-10T07:33:57;7.78;;;2.97;;
2452;SDS011;63678;47.994;7.854;2023-05-10T07:36:29;7.67;;;2.70;;
2452;SDS011;63678;47.994;7.854;2023-05-10T07:39:01;7.18;;;2.72;;
2452;SDS011;63678;47.994;7.854;2023-05-10T07:41:33;8.02;;;3.13;;
2452;SDS011;63678;47.994;7.854;2023-05-10T07:44:06;7.03;;;3.08;;
2452;SDS011;63678;47.994;7.854;2023-05-10T07:46:39;8.13;;;3.17;;
2452;SDS011;63678;47.994;7.854;2023-05-10T07:49:11;4.33;;;2.50;;
2452;SDS011;63678;47.994;7.854;2023-05-10T07:51:44;5.60;;;2.78;;
2452;SDS011;63678;47.994;7.854;2023-05-10T07:54:16;6.95;;;2.95;;
2452;SDS011;63678;47.994;7.854;2023-05-10T07:56:49;5.75;;;2.55;;
2452;SDS011;63678;47.994;7.854;2023-05-10T07:59:22;5.18;;;2.50;;
2452;SDS011;63678;47.994;7.854;2023-05-10T08:01:54;5.20;;;3.00;;
2452;SDS011;63678;47.994;7.854;2023-05-10T08:04:27;9.40;;;2.65;;
2452;SDS011;63678;47.994;7.854;2023-05-10T08:06:59;7.35;;;3.22;;
2452;SDS011;63678;47.994;7.854;2023-05-10T08:09:32;6.68;;;2.47;;
2452;SDS011;63678;47.994;7.854;2023-05-10T08:12:05;7.22;;;2.83;;
2452;SDS011;63678;47.994;7.854;2023-05-10T08:14:37;7.50;;;2.37;;
2452;SDS011;63678;47.994;7.854;2023-05-10T08:33:09;4.43;;;2.08;;
2452;SDS011;63678;47.994;7.854;2023-05-10T08:35:42;5.25;;;2.25;;
2452;SDS011;63678;47.994;7.854;2023-05-10T08:38:14;7.45;;;2.05;;
2452;SDS011;63678;47.994;7.854;2023-05-10T08:40:47;6.65;;;2.28;;
2452;SDS011;63678;47.994;7.854;2023-05-10T08:43:22;7.53;;;2.00;;
2452;SDS011;63678;47.994;7.854;2023-05-10T08:46:00;7.57;;;2.05;;
2452;SDS011;63678;47.994;7.854;2023-05-10T08:48:34;7.30;;;2.30;;
2452;SDS011;63678;47.994;7.854;2023-05-10T08:51:07;5.93;;;2.00;;
2452;SDS011;63678;47.994;7.854;2023-05-10T08:53:41;5.97;;;2.20;;
2452;SDS011;63678;47.994;7.854;2023-05-10T08:56:15;6.83;;;2.70;;
2452;SDS011;63678;47.994;7.854;2023-05-10T08:58:49;5.45;;;1.98;;
2452;SDS011;63678;47.994;7.854;2023-05-10T09:01:22;5.57;;;2.00;;
2452;SDS011;63678;47.994;7.854;2023-05-10T09:03:55;6.00;;;2.30;;
2452;SDS011;63678;47.994;7.854;2023-05-10T09:06:28;5.50;;;2.25;;
2452;SDS011;63678;47.994;7.854;2023-05-10T09:09:01;5.53;;;2.00;;
2452;SDS011;63678;47.994;7.854;2023-05-10T09:11:34;4.38;;;1.90;;
2452;SDS011;63678;47.994;7.854;2023-05-10T09:14:08;11.43;;;4.82;;
2452;SDS011;63678;47.994;7.854;2023-05-10T09:16:41;5.35;;;1.98;;
2452;SDS011;63678;47.994;7.854;2023-05-10T09:19:14;8.27;;;2.40;;
2452;SDS011;63678;47.994;7.854;2023-05-10T09:21:46;5.93;;;1.90;;
2452;SDS011;63678;47.994;7.854;2023-05-10T09:24:19;4.32;;;1.90;;
2452;SDS011;63678;47.994;7.854;2023-05-10T09:26:52;6.95;;;2.20;;
2452;SDS011;63678;47.994;7.854;2023-05-10T09:29:24;4.13;;;2.03;;
2452;SDS011;63678;47.994;7.854;2023-05-10T09:31:57;8.30;;;2.58;;
2452;SDS011;63678;47.994;7.854;2023-05-10T09:34:31;5.63;;;1.67;;
2452;SDS011;63678;47.994;7.854;2023-05-10T09:37:04;7.32;;;2.17;;
2452;SDS011;63678;47.994;7.854;2023-05-10T09:39:37;4.35;;;1.90;;
2452;SDS011;63678;47.994;7.854;2023-05-10T09:42:10;8.73;;;2.03;;
2452;SDS011;63678;47.994;7.854;2023-05-10T09:44:43;6.13;;;2.05;;
2452;SDS011;63678;47.994;7.854;2023-05-10T09:47:17;5.10;;;1.80;;
2452;SDS011;63678;47.994;7.854;2023-05-10T09:49:53;6.20;;;1.60;;
2452;SDS011;63678;47.994;7.854;2023-05-10T09:52:30;4.25;;;1.90;;
2452;SDS011;63678;47.994;7.854;2023-05-10T09:55:03;4.47;;;2.00;;
2452;SDS011;63678;47.994;7.854;2023-05-10T09:57:36;6.20;;;1.77;;
2452;SDS011;63678;47.994;7.854;2023-05-10T10:00:09;7.20;;;1.63;;
2452;SDS011;63678;47.994;7.854;2023-05-10T10:02:45;7.75;;;1.60;;
2452;SDS011;63678;47.994;7.854;2023-05-10T10:05:20;5.00;;;1.75;;
2452;SDS011;63678;47.994;7.854;2023-05-10T10:07:52;5.03;;;2.20;;
2452;SDS011;63678;47.994;7.854;2023-05-10T10:10:25;5.45;;;1.88;;
2452;SDS011;63678;47.994;7.854;2023-05-10T10:13:05;6.63;;;1.80;;
2452;SDS011;63678;47.994;7.854;2023-05-10T10:15:38;6.50;;;1.70;;
2452;SDS011;63678;47.994;7.854;2023-05-10T10:18:12;4.75;;;2.00;;
2452;SDS011;63678;47.994;7.854;2023-05-10T10:20:47;4.63;;;1.65;;
2452;SDS011;63678;47.994;7.854;2023-05-10T10:23:19;5.10;;;2.13;;
2452;SDS011;63678;47.994;7.854;2023-05-10T10:25:52;7.90;;;1.80;;
2452;SDS011;63678;47.994;7.854;2023-05-10T10:28:31;5.20;;;1.80;;
2452;SDS011;63678;47.994;7.854;2023-05-10T10:34:51;6.25;;;1.60;;
2452;SDS011;63678;47.994;7.854;2023-05-10T10:37:40;3.78;;;1.95;;
2452;SDS011;63678;47.994;7.854;2023-05-10T10:40:27;5.57;;;1.83;;
2452;SDS011;63678;47.994;7.854;2023-05-10T10:48:47;5.13;;;1.73;;
2452;SDS011;63678;47.994;7.854;2023-05-10T10:51:23;4.65;;;2.00;;
2452;SDS011;63678;47.994;7.854;2023-05-10T10:53:56;4.40;;;1.93;;
2452;SDS011;63678;47.994;7.854;2023-05-10T10:56:41;4.60;;;1.85;;
2452;SDS011;63678;47.994;7.854;2023-05-10T10:59:26;5.70;;;2.10;;
2452;SDS011;63678;47.994;7.854;2023-05-10T11:01:59;5.18;;;1.75;;
2452;SDS011;63678;47.994;7.854;2023-05-10T11:04:40;4.75;;;2.00;;
2452;SDS011;63678;47.994;7.854;2023-05-10T11:07:18;5.40;;;1.80;;
2452;SDS011;63678;47.994;7.854;2023-05-10T11:09:54;7.93;;;1.95;;
2452;SDS011;63678;47.994;7.854;2023-05-10T11:12:27;4.63;;;1.80;;
2452;SDS011;63678;47.994;7.854;2023-05-10T11:15:01;6.53;;;2.00;;
2452;SDS011;63678;47.994;7.854;2023-05-10T11:17:34;4.55;;;1.73;;
2452;SDS011;63678;47.994;7.854;2023-05-10T11:20:07;6.07;;;1.60;;
2452;SDS011;63678;47.994;7.854;2023-05-10T11:22:50;4.55;;;1.70;;
2452;SDS011;63678;47.994;7.854;2023-05-10T11:25:26;6.95;;;1.95;;
2452;SDS011;63678;47.994;7.854;2023-05-10T11:28:00;4.80;;;1.88;;
2452;SDS011;63678;47.994;7.854;2023-05-10T11:30:37;5.75;;;2.28;;
2452;SDS011;63678;47.994;7.854;2023-05-10T11:33:15;5.13;;;1.87;;
2452;SDS011;63678;47.994;7.854;2023-05-10T11:35:49;6.32;;;1.98;;
2452;SDS011;63678;47.994;7.854;2023-05-10T11:38:22;4.80;;;2.25;;
2452;SDS011;63678;47.994;7.854;2023-05-10T11:40:54;6.82;;;2.28;;
2452;SDS011;63678;47.994;7.854;2023-05-10T11:43:26;5.75;;;1.98;;
2452;SDS011;63678;47.994;7.854;2023-05-10T11:46:02;6.07;;;2.17;;
2452;SDS011;63678;47.994;7.854;2023-05-10T11:48:34;6.03;;;1.85;;
2452;SDS011;63678;47.994;7.854;2023-05-10T11:51:07;5.85;;;2.67;;
2452;SDS011;63678;47.994;7.854;2023-05-10T11:53:41;6.50;;;1.95;;
2452;SDS011;63678;47.994;7.854;2023-05-10T11:56:13;4.97;;;2.15;;
2452;SDS011;63678;47.994;7.854;2023-05-10T11:58:51;8.87;;;1.90;;
2452;SDS011;63678;47.994;7.854;2023-05-10T12:01:28;6.97;;;1.77;;
2452;SDS011;63678;47.994;7.854;2023-05-10T12:04:00;7.85;;;2.10;;
2452;SDS011;63678;47.994;7.854;2023-05-10T12:06:35;4.90;;;1.80;;
2452;SDS011;63678;47.994;7.854;2023-05-10T12:09:12;4.72;;;1.85;;
2452;SDS011;63678;47.994;7.854;2023-05-10T12:11:44;5.13;;;2.07;;
2452;SDS011;63678;47.994;7.854;2023-05-10T12:14:17;5.07;;;1.83;;
2452;SDS011;63678;47.994;7.854;2023-05-10T12:16:51;5.10;;;1.50;;
2452;SDS011;63678;47.994;7.854;2023-05-10T12:19:24;5.95;;;2.22;;
2452;SDS011;63678;47.994;7.854;2023-05-10T12:21:56;5.53;;;1.77;;
2452;SDS011;63678;47.994;7.854;2023-05-10T12:24:28;5.30;;;1.87;;
2452;SDS011;63678;47.994;7.854;2023-05-10T12:27:04;5.07;;;1.70;;
2452;SDS011;63678;47.994;7.854;2023-05-10T12:29:41;5.00;;;1.52;;
2452;SDS011;63678;47.994;7.854;2023-05-10T12:32:15;5.07;;;1.98;;
2452;SDS011;63678;47.994;7.854;2023-05-10T12:34:48;5.18;;;1.88;;
2452;SDS011;63678;47.994;7.854;2023-05-10T12:37:23;4.50;;;1.60;;
2452;SDS011;63678;47.994;7.854;2023-05-10T12:39:59;5.60;;;1.80;;
2452;SDS011;63678;47.994;7.854;2023-05-10T12:42:32;5.78;;;1.75;;
2452;SDS011;63678;47.994;7.854;2023-05-10T12:45:04;7.85;;;1.90;;
2452;SDS011;63678;47.994;7.854;2023-05-10T12:47:38;5.72;;;1.65;;
2452;SDS011;63678;47.994;7.854;2023-05-10T12:50:14;6.67;;;1.97;;
2452;SDS011;63678;47.994;7.854;2023-05-10T12:52:47;8.18;;;1.88;;
2452;SDS011;63678;47.994;7.854;2023-05-10T12:55:19;5.65;;;1.80;;
2452;SDS011;63678;47.994;7.854;2023-05-10T12:57:52;6.05;;;2.00;;
2452;SDS011;63678;47.994;7.854;2023-05-10T13:00:24;4.90;;;1.70;;
2452;SDS011;63678;47.994;7.854;2023-05-10T13:02:56;4.50;;;1.53;;
2452;SDS011;63678;47.994;7.854;2023-05-10T13:05:28;3.95;;;1.92;;
2452;SDS011;63678;47.994;7.854;2023-05-10T13:08:01;4.85;;;1.55;;
2452;SDS011;63678;47.994;7.854;2023-05-10T13:10:34;5.00;;;1.50;;
2452;SDS011;63678;47.994;7.854;2023-05-10T13:13:06;4.53;;;1.50;;
2452;SDS011;63678;47.994;7.854;2023-05-10T13:15:39;3.53;;;1.30;;
2452;SDS011;63678;47.994;7.854;2023-05-10T13:18:12;4.57;;;1.70;;
2452;SDS011;63678;47.994;7.854;2023-05-10T13:20:44;5.45;;;1.70;;
2452;SDS011;63678;47.994;7.854;2023-05-10T13:23:17;4.00;;;1.60;;
2452;SDS011;63678;47.994;7.854;2023-05-10T13:25:49;4.55;;;1.70;;
2452;SDS011;63678;47.994;7.854;2023-05-10T13:28:21;5.03;;;1.70;;
2452;SDS011;63678;47.994;7.854;2023-05-10T13:30:54;5.47;;;1.63;;
2452;SDS011;63678;47.994;7.854;2023-05-10T13:33:26;5.60;;;1.73;;
2452;SDS011;63678;47.994;7.854;2023-05-10T13:35:59;6.72;;;1.77;;
2452;SDS011;63678;47.994;7.854;2023-05-10T13:38:31;3.70;;;1.55;;
2452;SDS011;63678;47.994;7.854;2023-05-10T13:41:04;5.07;;;1.87;;
2452;SDS011;63678;47.994;7.854;2023-05-10T13:43:36;6.72;;;2.03;;
2452;SDS011;63678;47.994;7.854;2023-05-10T13:46:09;4.45;;;1.70;;
2452;SDS011;63678;47.994;7.854;2023-05-10T13:48:41;5.40;;;1.92;;
2452;SDS011;63678;47.994;7.854;2023-05-10T13:51:13;4.72;;;1.98;;
2452;SDS011;63678;47.994;7.854;2023-05-10T13:53:46;4.40;;;1.40;;
2452;SDS011;63678;47.994;7.854;2023-05-10T13:56:19;4.20;;;1.73;;
2452;SDS011;63678;47.994;7.854;2023-05-10T13:58:51;6.18;;;1.83;;
2452;SDS011;63678;47.994;7.854;2023-05-10T14:01:24;4.50;;;1.60;;
2452;SDS011;63678;47.994;7.854;2023-05-10T14:03:56;3.75;;;1.85;;
2452;SDS011;63678;47.994;7.854;2023-05-10T14:06:29;3.60;;;1.40;;
2452;SDS011;63678;47.994;7.854;2023-05-10T14:09:02;5.03;;;1.92;;
2452;SDS011;63678;47.994;7.854;2023-05-10T14:11:35;4.57;;;1.50;;
2452;SDS011;63678;47.994;7.854;2023-05-10T14:14:08;3.30;;;1.38;;
2452;SDS011;63678;47.994;7.854;2023-05-10T14:16:43;3.97;;;1.50;;
2452;SDS011;63678;47.994;7.854;2023-05-10T14:19:16;4.30;;;1.43;;
2452;SDS011;63678;47.994;7.854;2023-05-10T14:21:49;3.30;;;1.20;;
2452;SDS011;63678;47.994;7.854;2023-05-10T14:24:23;3.58;;;1.45;;
2452;SDS011;63678;47.994;7.854;2023-05-10T14:26:55;5.45;;;1.50;;
2452;SDS011;63678;47.994;7.854;2023-05-10T14:29:28;3.92;;;1.60;;
2452;SDS011;63678;47.994;7.854;2023-05-10T14:32:00;3.30;;;1.50;;
2452;SDS011;63678;47.994;7.854;2023-05-10T14:37:31;7.80;;;2.00;;
2452;SDS011;63678;47.994;7.854;2023-05-10T14:40:05;3.88;;;1.40;;
2452;SDS011;63678;47.994;7.854;2023-05-10T14:42:38;3.78;;;1.50;;
2452;SDS011;63678;47.994;7.854;2023-05-10T14:45:11;3.50;;;1.60;;
2452;SDS011;63678;47.994;7.854;2023-05-10T14:47:43;4.07;;;1.45;;
2452;SDS011;63678;47.994;7.854;2023-05-10T14:50:17;3.88;;;1.38;;
2452;SDS011;63678;47.994;7.854;2023-05-10T14:53:05;3.15;;;1.42;;
2452;SDS011;63678;47.994;7.854;2023-05-10T14:55:38;5.30;;;2.00;;
2452;SDS011;63678;47.994;7.854;2023-05-10T14:58:11;3.93;;;1.40;;
2452;SDS011;63678;47.994;7.854;2023-05-10T15:00:43;3.65;;;1.67;;
2452;SDS011;63678;47.994;7.854;2023-05-10T15:03:17;3.92;;;1.50;;
2452;SDS011;63678;47.994;7.854;2023-05-10T15:05:50;4.00;;;1.70;;
2452;SDS011;63678;47.994;7.854;2023-05-10T15:08:23;3.50;;;1.80;;
2452;SDS011;63678;47.994;7.854;2023-05-10T15:10:56;3.20;;;1.53;;
2452;SDS011;63678;47.994;7.854;2023-05-10T15:13:29;5.80;;;1.48;;
2452;SDS011;63678;47.994;7.854;2023-05-10T15:16:01;3.53;;;2.05;;
2452;SDS011;63678;47.994;7.854;2023-05-10T15:18:33;3.75;;;1.58;;
2452;SDS011;63678;47.994;7.854;2023-05-10T15:21:06;3.40;;;1.50;;
2452;SDS011;63678;47.994;7.854;2023-05-10T15:23:39;4.93;;;1.70;;
2452;SDS011;63678;47.994;7.854;2023-05-10T15:26:11;3.88;;;1.58;;
2452;SDS011;63678;47.994;7.854;2023-05-10T15:28:44;3.83;;;1.80;;
2452;SDS011;63678;47.994;7.854;2023-05-10T15:31:17;3.00;;;1.52;;
2452;SDS011;63678;47.994;7.854;2023-05-10T15:33:49;3.17;;;1.27;;
2452;SDS011;63678;47.994;7.854;2023-05-10T15:36:22;3.67;;;1.50;;
2452;SDS011;63678;47.994;7.854;2023-05-10T15:38:54;3.40;;;1.55;;
2452;SDS011;63678;47.994;7.854;2023-05-10T15:41:27;4.97;;;1.77;;
2452;SDS011;63678;47.994;7.854;2023-05-10T15:44:00;9.48;;;1.40;;
2452;SDS011;63678;47.994;7.854;2023-05-10T15:46:32;6.57;;;1.83;;
2452;SDS011;63678;47.994;7.854;2023-05-10T15:49:05;4.17;;;1.40;;
2452;SDS011;63678;47.994;7.854;2023-05-10T15:51:37;4.75;;;1.92;;
2452;SDS011;63678;47.994;7.854;2023-05-10T15:54:10;3.85;;;1.55;;
2452;SDS011;63678;47.994;7.854;2023-05-10T15:56:43;5.05;;;1.80;;
2452;SDS011;63678;47.994;7.854;2023-05-10T15:59:16;4.20;;;1.75;;
2452;SDS011;63678;47.994;7.854;2023-05-10T16:01:48;3.37;;;1.50;;
2452;SDS011;63678;47.994;7.854;2023-05-10T16:04:22;4.82;;;1.90;;
2452;SDS011;63678;47.994;7.854;2023-05-10T16:06:54;5.65;;;1.88;;
2452;SDS011;63678;47.994;7.854;2023-05-10T16:09:26;4.65;;;1.73;;
2452;SDS011;63678;47.994;7.854;2023-05-10T16:12:00;3.42;;;1.52;;
2452;SDS011;63678;47.994;7.854;2023-05-10T16:14:33;4.17;;;1.80;;
2452;SDS011;63678;47.994;7.854;2023-05-10T16:17:05;5.57;;;2.28;;
2452;SDS011;63678;47.994;7.854;2023-05-10T16:19:38;4.30;;;2.08;;
2452;SDS011;63678;47.994;7.854;2023-05-10T16:22:11;3.75;;;1.38;;
2452;SDS011;63678;47.994;7.854;2023-05-10T16:24:44;4.93;;;2.00;;
2452;SDS011;63678;47.994;7.854;2023-05-10T16:27:16;5.37;;;1.90;;